Time;durP1;ratioP1;P1;durP2;ratioP2;P2;SDS_P1;SDS_P2;PMS_P1;PMS_P2;Temp;Humidity;BMP_temperature;BMP_pressure;BME280_temperature;BME280_humidity;BME280_pressure;Samples;Min_cycle;Max_cycle;Signal;HPM_P1;HPM_P2
2022/01/29 00:02:23;;;;;;;8.23;3.15;;;1.40;99.90;;;;;;7372146;19;20344;-82
2022/01/29 00:04:49;;;;;;;4.75;2.50;;;1.40;99.90;;;;;;7401530;19;20317;-79
2022/01/29 00:07:14;;;;;;;4.57;2.40;;;1.40;99.90;;;;;;7396994;19;20293;-78
2022/01/29 00:09:42;;;;;;;7.00;2.53;;;1.50;99.90;;;;;;7396543;19;20318;-76
2022/01/29 00:12:08;;;;;;;10.98;2.92;;;1.40;99.90;;;;;;7395108;19;20328;-83
2022/01/29 00:14:34;;;;;;;6.22;2.78;;;1.50;99.90;;;;;;7392945;19;20904;-79
2022/01/29 00:16:59;;;;;;;7.43;2.83;;;1.50;99.90;;;;;;7394022;19;20664;-78
2022/01/29 00:19:25;;;;;;;7.18;3.30;;;1.50;99.90;;;;;;7378606;19;20392;-78
2022/01/29 00:21:51;;;;;;;5.27;2.73;;;1.50;99.90;;;;;;7393394;19;20340;-79
2022/01/29 00:24:16;;;;;;;5.20;2.80;;;1.50;99.90;;;;;;7397677;19;20404;-78
2022/01/29 00:26:42;;;;;;;5.95;2.60;;;1.50;99.90;;;;;;7391725;19;20388;-79
2022/01/29 00:29:16;;;;;;;8.77;2.77;;;1.50;99.90;;;;;;7393744;19;20304;-78
2022/01/29 00:31:42;;;;;;;5.60;2.45;;;1.50;99.90;;;;;;7392498;19;20851;-83
2022/01/29 00:34:08;;;;;;;5.00;2.57;;;1.60;99.90;;;;;;7392515;19;20355;-79
2022/01/29 00:36:33;;;;;;;4.43;2.22;;;1.50;99.90;;;;;;7395796;19;20976;-82
2022/01/29 00:38:59;;;;;;;6.73;2.77;;;1.60;99.90;;;;;;7393604;19;21370;-78
2022/01/29 00:41:25;;;;;;;9.03;3.00;;;1.60;99.90;;;;;;7390228;19;20678;-82
2022/01/29 00:43:50;;;;;;;7.70;2.88;;;1.50;99.90;;;;;;7391967;19;20337;-78
2022/01/29 00:46:16;;;;;;;5.00;2.97;;;1.50;99.90;;;;;;7393670;19;20427;-78
2022/01/29 00:48:42;;;;;;;6.32;2.63;;;1.50;99.90;;;;;;7391914;19;20336;-78
2022/01/29 00:51:07;;;;;;;4.45;2.50;;;1.50;99.90;;;;;;7392342;19;20340;-78
2022/01/29 00:53:33;;;;;;;10.17;5.03;;;1.50;99.90;;;;;;7391623;19;20305;-80
2022/01/29 00:55:59;;;;;;;5.82;3.58;;;1.50;99.90;;;;;;7393982;19;20321;-77
2022/01/29 00:58:24;;;;;;;5.47;2.72;;;1.50;99.90;;;;;;7391375;19;20329;-79
2022/01/29 01:00:50;;;;;;;5.33;2.53;;;1.50;99.90;;;;;;7392182;19;20411;-78
2022/01/29 01:03:16;;;;;;;6.82;2.72;;;1.50;99.90;;;;;;7392419;19;20300;-81
2022/01/29 01:05:41;;;;;;;5.30;2.20;;;1.50;99.90;;;;;;7371093;19;20360;-76
2022/01/29 01:08:08;;;;;;;6.00;2.50;;;1.40;99.90;;;;;;7392545;19;20342;-79
2022/01/29 01:10:34;;;;;;;4.13;2.58;;;1.30;99.90;;;;;;7390627;19;20377;-78
2022/01/29 01:12:59;;;;;;;7.03;2.73;;;1.40;99.90;;;;;;7389792;19;20360;-78
2022/01/29 01:15:25;;;;;;;4.00;2.20;;;1.40;99.90;;;;;;7395002;19;20412;-78
2022/01/29 01:17:51;;;;;;;5.63;2.60;;;1.40;99.90;;;;;;7393831;19;20321;-79
2022/01/29 01:20:16;;;;;;;4.97;2.50;;;1.30;99.90;;;;;;7391035;19;20878;-82
2022/01/29 01:22:42;;;;;;;5.22;2.65;;;1.30;99.90;;;;;;7393330;19;20305;-81
2022/01/29 01:25:08;;;;;;;4.33;2.53;;;1.50;99.90;;;;;;7389911;19;20303;-79
2022/01/29 01:27:34;;;;;;;5.30;2.22;;;1.30;99.90;;;;;;7391462;19;20317;-80
2022/01/29 01:29:59;;;;;;;6.07;2.73;;;1.30;99.90;;;;;;7391540;19;20355;-77
2022/01/29 01:32:25;;;;;;;8.93;2.83;;;1.30;99.90;;;;;;7391752;19;20321;-80
2022/01/29 01:34:54;;;;;;;8.70;2.77;;;1.30;99.90;;;;;;7393576;19;20336;-78
2022/01/29 01:37:33;;;;;;;5.60;2.55;;;1.30;99.90;;;;;;7392678;19;20392;-82
2022/01/29 01:39:59;;;;;;;5.35;2.50;;;1.40;99.90;;;;;;7407382;19;20293;-82
2022/01/29 01:42:25;;;;;;;7.43;3.23;;;1.40;99.90;;;;;;7412453;19;20297;-81
2022/01/29 01:44:52;;;;;;;4.28;2.33;;;1.40;99.90;;;;;;7406801;19;20302;-81
2022/01/29 01:47:18;;;;;;;6.00;2.50;;;1.50;99.90;;;;;;7407077;19;20300;-78
2022/01/29 01:49:44;;;;;;;5.00;2.10;;;1.40;99.90;;;;;;7400484;19;20305;-79
2022/01/29 01:52:11;;;;;;;4.80;2.70;;;1.40;99.90;;;;;;7396959;19;20312;-78
2022/01/29 01:54:42;;;;;;;6.50;3.08;;;1.30;99.90;;;;;;7395445;19;20623;-78
2022/01/29 01:57:08;;;;;;;6.50;2.60;;;1.30;99.90;;;;;;7394241;19;20312;-78
2022/01/29 01:59:34;;;;;;;9.82;3.20;;;1.40;99.90;;;;;;7393702;19;20395;-79
2022/01/29 02:01:59;;;;;;;7.97;2.70;;;1.40;99.90;;;;;;7392825;19;20304;-80
2022/01/29 02:04:25;;;;;;;5.63;2.70;;;1.40;99.90;;;;;;7376797;19;20337;-78
2022/01/29 02:06:51;;;;;;;9.07;3.17;;;1.40;99.90;;;;;;7393243;19;20384;-78
2022/01/29 02:09:19;;;;;;;5.93;2.80;;;1.40;99.90;;;;;;7391820;19;21265;-78
2022/01/29 02:11:52;;;;;;;6.57;2.88;;;1.50;99.90;;;;;;7390663;19;20324;-79
2022/01/29 02:14:19;;;;;;;5.75;2.85;;;1.50;99.90;;;;;;7391272;19;20325;-79
2022/01/29 02:16:45;;;;;;;4.23;3.03;;;1.50;99.90;;;;;;7390374;19;20345;-79
2022/01/29 02:19:10;;;;;;;2.97;2.00;;;1.50;99.90;;;;;;7391555;19;20327;-78
2022/01/29 02:21:36;;;;;;;5.07;2.78;;;1.50;99.90;;;;;;7389518;19;20317;-79
2022/01/29 02:24:02;;;;;;;6.75;2.80;;;1.50;99.90;;;;;;7390513;19;20337;-80
2022/01/29 02:26:28;;;;;;;5.73;2.90;;;1.50;99.90;;;;;;7391392;19;20690;-79
2022/01/29 02:28:55;;;;;;;5.50;3.03;;;1.50;99.90;;;;;;7390049;19;20312;-78
2022/01/29 02:31:20;;;;;;;9.68;2.60;;;1.60;99.90;;;;;;7391697;19;20340;-79
2022/01/29 02:33:46;;;;;;;5.20;2.73;;;1.60;99.90;;;;;;7387580;19;20300;-78
2022/01/29 02:36:11;;;;;;;7.13;2.90;;;1.60;99.90;;;;;;7390163;19;20345;-79
2022/01/29 02:38:37;;;;;;;7.55;2.88;;;1.60;99.90;;;;;;7393185;19;20352;-80
2022/01/29 02:41:05;;;;;;;9.07;3.27;;;1.60;99.90;;;;;;7403305;19;20893;-78
2022/01/29 02:43:36;;;;;;;7.75;3.33;;;1.60;99.90;;;;;;7402437;19;20316;-84
2022/01/29 02:46:08;;;;;;;8.93;2.95;;;1.70;99.90;;;;;;7404469;19;20376;-83
2022/01/29 02:48:33;;;;;;;8.73;2.65;;;1.80;99.90;;;;;;7402270;19;20829;-79
2022/01/29 02:50:59;;;;;;;6.27;3.00;;;1.70;99.90;;;;;;7404031;19;20309;-79
2022/01/29 02:53:25;;;;;;;7.43;2.78;;;1.80;99.90;;;;;;7402450;19;22096;-79
2022/01/29 02:55:50;;;;;;;4.13;2.53;;;1.80;99.90;;;;;;7401924;19;20310;-79
2022/01/29 02:58:16;;;;;;;8.13;2.77;;;1.80;99.90;;;;;;7404917;19;20296;-78
2022/01/29 03:00:42;;;;;;;6.55;2.85;;;1.80;99.90;;;;;;7404337;19;20311;-81
2022/01/29 03:03:07;;;;;;;7.20;2.90;;;1.80;99.90;;;;;;7402579;19;20296;-79
2022/01/29 03:05:33;;;;;;;4.13;2.30;;;1.90;99.90;;;;;;7405311;19;20320;-79
2022/01/29 03:07:59;;;;;;;5.90;2.93;;;1.80;99.90;;;;;;7404634;19;20315;-80
2022/01/29 03:10:25;;;;;;;6.22;2.60;;;2.00;99.90;;;;;;7402241;19;20427;-78
2022/01/29 03:12:52;;;;;;;2.95;2.40;;;1.90;99.90;;;;;;7403043;19;20870;-79
2022/01/29 03:15:17;;;;;;;4.35;2.67;;;2.00;99.90;;;;;;7403239;19;20312;-79
2022/01/29 03:17:43;;;;;;;8.07;2.93;;;2.00;99.90;;;;;;7420216;19;20862;-79
2022/01/29 03:20:10;;;;;;;8.43;3.22;;;2.00;99.90;;;;;;7413664;19;20410;-79
2022/01/29 03:22:36;;;;;;;4.72;2.67;;;2.00;99.90;;;;;;7409767;19;20320;-79
2022/01/29 03:25:02;;;;;;;3.40;2.47;;;2.10;99.90;;;;;;7406208;19;20301;-81
2022/01/29 03:27:28;;;;;;;9.43;3.22;;;2.10;99.90;;;;;;7406995;19;20361;-78
2022/01/29 03:29:53;;;;;;;6.33;2.93;;;2.10;99.90;;;;;;7404150;19;20331;-79
2022/01/29 03:32:19;;;;;;;4.57;2.50;;;2.10;99.90;;;;;;7407291;19;20361;-79
2022/01/29 03:34:44;;;;;;;7.90;2.78;;;2.10;99.90;;;;;;7405812;19;20312;-79
2022/01/29 03:37:10;;;;;;;6.83;3.10;;;2.10;99.90;;;;;;7403367;19;20308;-79
2022/01/29 03:39:37;;;;;;;4.25;2.58;;;2.20;99.90;;;;;;7402550;19;20347;-78
2022/01/29 03:42:06;;;;;;;4.50;2.70;;;2.20;99.90;;;;;;7405478;19;20322;-79
2022/01/29 03:44:32;;;;;;;5.90;2.58;;;2.20;99.90;;;;;;7401604;19;20324;-80
2022/01/29 03:46:58;;;;;;;5.33;2.60;;;2.20;99.90;;;;;;7400425;19;20842;-81
2022/01/29 03:49:23;;;;;;;7.10;2.80;;;2.30;99.90;;;;;;7383374;19;20676;-79
2022/01/29 03:51:49;;;;;;;4.72;2.88;;;2.30;99.90;;;;;;7391336;19;20730;-79
2022/01/29 03:54:15;;;;;;;8.20;2.73;;;2.30;99.90;;;;;;7393001;19;20339;-79
2022/01/29 03:56:40;;;;;;;4.43;2.72;;;2.30;99.90;;;;;;7392518;19;20341;-80
2022/01/29 03:59:06;;;;;;;4.37;2.60;;;2.30;99.90;;;;;;7395368;19;20345;-80
2022/01/29 04:01:32;;;;;;;5.87;2.60;;;2.30;99.90;;;;;;7394877;19;20313;-78
2022/01/29 04:03:57;;;;;;;4.90;2.60;;;2.40;99.90;;;;;;7394336;19;20377;-79
2022/01/29 04:06:23;;;;;;;6.70;2.47;;;2.30;99.90;;;;;;7394156;19;20329;-78
2022/01/29 04:08:49;;;;;;;2.42;2.22;;;2.40;99.90;;;;;;7392953;19;20766;-79
2022/01/29 04:11:15;;;;;;;4.35;2.65;;;2.40;99.90;;;;;;7394232;19;20297;-79
2022/01/29 04:13:44;;;;;;;4.85;2.42;;;2.40;99.90;;;;;;7393731;19;20649;-79
2022/01/29 04:16:10;;;;;;;4.68;2.70;;;2.40;99.90;;;;;;7393762;19;20360;-82
2022/01/29 04:18:36;;;;;;;5.93;2.50;;;2.40;99.90;;;;;;7395584;19;20851;-79
2022/01/29 04:21:02;;;;;;;4.10;2.63;;;2.40;99.90;;;;;;7392962;19;20372;-78
2022/01/29 04:23:28;;;;;;;5.53;2.45;;;2.40;99.90;;;;;;7386354;19;20347;-83
2022/01/29 04:25:54;;;;;;;4.17;2.37;;;2.50;99.90;;;;;;7393511;19;20732;-78
2022/01/29 04:28:26;;;;;;;6.28;2.90;;;2.50;99.90;;;;;;7391795;19;20313;-79
2022/01/29 04:30:57;;;;;;;6.05;2.55;;;2.50;99.90;;;;;;7393182;19;20296;-82
2022/01/29 04:35:50;;;;;;;4.22;2.67;;;2.50;99.90;;;;;;7392214;19;20356;-78
2022/01/29 04:38:16;;;;;;;7.10;3.00;;;2.50;99.90;;;;;;7393015;19;20863;-79
2022/01/29 04:40:42;;;;;;;6.17;2.47;;;2.60;99.90;;;;;;7393529;19;20304;-81
2022/01/29 04:43:08;;;;;;;4.07;2.67;;;2.50;99.90;;;;;;7395484;19;20325;-79
2022/01/29 04:45:33;;;;;;;4.35;2.50;;;2.50;99.90;;;;;;7392559;19;20352;-81
2022/01/29 04:47:59;;;;;;;6.00;2.93;;;2.50;99.90;;;;;;7394025;19;20337;-78
2022/01/29 04:50:25;;;;;;;2.80;2.30;;;2.40;99.90;;;;;;7392090;19;20899;-77
2022/01/29 04:52:51;;;;;;;5.40;2.50;;;2.40;99.90;;;;;;7396008;19;20344;-80
2022/01/29 04:55:16;;;;;;;3.47;2.43;;;2.60;99.90;;;;;;7410966;19;20301;-81
2022/01/29 04:57:42;;;;;;;7.30;2.42;;;2.40;99.90;;;;;;7401388;19;20373;-82
2022/01/29 05:00:19;;;;;;;4.20;2.60;;;2.40;99.90;;;;;;7398700;19;20327;-80
2022/01/29 05:02:45;;;;;;;5.93;3.10;;;2.40;99.90;;;;;;7291834;19;2004618;-79
2022/01/29 05:05:11;;;;;;;7.63;3.10;;;2.30;99.90;;;;;;7390262;19;20863;-79
2022/01/29 05:07:37;;;;;;;5.88;2.97;;;2.30;99.90;;;;;;7392471;19;20392;-80
2022/01/29 05:10:03;;;;;;;8.77;3.17;;;2.40;99.90;;;;;;7392169;19;20320;-79
2022/01/29 05:12:36;;;;;;;4.27;2.73;;;2.20;99.90;;;;;;7392192;19;20351;-80
2022/01/29 05:15:15;;;;;;;4.53;3.03;;;2.20;99.90;;;;;;7379538;19;20376;-81
2022/01/29 05:28:38;;;;;;;6.68;3.00;;;2.10;99.90;;;;;;7286954;19;2004310;-80
2022/01/29 05:31:04;;;;;;;8.35;3.03;;;2.10;99.90;;;;;;7390837;19;20312;-81
2022/01/29 05:33:30;;;;;;;6.87;3.00;;;2.10;99.90;;;;;;7388355;19;20323;-78
2022/01/29 05:35:56;;;;;;;4.45;2.70;;;2.10;99.90;;;;;;7389861;19;20330;-79
2022/01/29 05:38:21;;;;;;;6.40;2.80;;;2.10;99.90;;;;;;7393195;19;20297;-78
2022/01/29 05:40:48;;;;;;;3.42;2.38;;;2.20;99.90;;;;;;7386954;19;20847;-80
2022/01/29 05:43:14;;;;;;;5.63;2.85;;;2.20;99.90;;;;;;7391064;19;20364;-80
2022/01/29 05:45:40;;;;;;;5.20;2.70;;;2.10;99.90;;;;;;7391615;19;20300;-81
2022/01/29 05:48:05;;;;;;;5.33;2.53;;;2.20;99.90;;;;;;7392615;19;20309;-80
2022/01/29 05:50:31;;;;;;;9.27;3.13;;;2.20;99.90;;;;;;7391218;19;20316;-79
2022/01/29 05:52:57;;;;;;;3.80;2.50;;;2.20;99.90;;;;;;7392269;19;20877;-85
2022/01/29 05:55:22;;;;;;;4.47;2.70;;;2.20;99.90;;;;;;7399615;19;20335;-80
2022/01/29 05:57:48;;;;;;;3.97;2.58;;;2.20;99.90;;;;;;7393142;19;20325;-79
2022/01/29 06:00:14;;;;;;;5.07;2.60;;;2.30;99.90;;;;;;7390928;19;20384;-81
2022/01/29 06:02:43;;;;;;;4.23;2.87;;;2.20;99.90;;;;;;7389861;19;20393;-81
2022/01/29 06:05:08;;;;;;;5.40;3.03;;;2.30;99.90;;;;;;7391154;19;20359;-82
2022/01/29 06:07:34;;;;;;;7.30;3.45;;;2.30;99.90;;;;;;7387856;19;20328;-80
2022/01/29 06:10:00;;;;;;;7.73;5.40;;;2.30;99.90;;;;;;7391211;19;20315;-80
2022/01/29 06:12:25;;;;;;;8.80;3.20;;;2.50;99.90;;;;;;7389975;19;20310;-79
2022/01/29 06:14:51;;;;;;;7.07;3.08;;;2.40;99.90;;;;;;7389686;19;20713;-78
2022/01/29 06:17:17;;;;;;;6.47;2.63;;;2.40;99.90;;;;;;7391835;19;20317;-78
2022/01/29 06:19:43;;;;;;;5.13;2.83;;;2.40;99.90;;;;;;7392856;19;20313;-79
2022/01/29 06:22:12;;;;;;;6.63;3.78;;;2.40;99.90;;;;;;7391344;19;20624;-79
2022/01/29 06:24:38;;;;;;;6.20;3.28;;;2.40;99.90;;;;;;7390510;19;20297;-79
2022/01/29 06:27:03;;;;;;;4.30;2.83;;;2.40;99.90;;;;;;7368074;19;20838;-79
2022/01/29 06:29:29;;;;;;;3.27;2.90;;;2.40;99.90;;;;;;7397332;19;20284;-82
2022/01/29 06:31:55;;;;;;;4.47;2.90;;;2.50;99.90;;;;;;7403396;19;20337;-79
2022/01/29 06:34:20;;;;;;;3.67;2.70;;;2.40;99.90;;;;;;7398281;19;20337;-80
2022/01/29 06:36:46;;;;;;;5.50;3.10;;;2.40;99.90;;;;;;7394927;19;20662;-81
2022/01/29 06:39:12;;;;;;;4.47;2.95;;;2.50;99.90;;;;;;7393219;19;20376;-79
2022/01/29 06:41:38;;;;;;;4.97;2.85;;;2.50;99.90;;;;;;7388994;19;20329;-82
2022/01/29 06:44:03;;;;;;;4.50;2.93;;;2.50;99.90;;;;;;7391875;19;20360;-79
2022/01/29 06:46:29;;;;;;;4.28;2.75;;;2.60;99.90;;;;;;7390206;19;20340;-82
2022/01/29 06:48:55;;;;;;;2.93;2.57;;;2.60;99.90;;;;;;7388028;19;20337;-80
2022/01/29 06:51:20;;;;;;;5.40;3.53;;;2.60;99.90;;;;;;7390819;19;20327;-79
2022/01/29 06:53:46;;;;;;;5.25;2.97;;;2.60;99.90;;;;;;7390397;19;20325;-78
2022/01/29 06:56:12;;;;;;;5.47;3.10;;;2.60;99.90;;;;;;7390897;19;20842;-78
2022/01/29 06:58:37;;;;;;;5.00;3.08;;;2.60;99.90;;;;;;7372017;19;20698;-81
2022/01/29 07:01:03;;;;;;;3.63;3.05;;;2.60;99.90;;;;;;7367204;19;20273;-83
2022/01/29 07:03:29;;;;;;;4.53;3.23;;;2.60;99.90;;;;;;7390011;19;20320;-79
2022/01/29 07:05:55;;;;;;;4.03;2.92;;;2.60;99.90;;;;;;7387306;19;20312;-80
2022/01/29 07:08:20;;;;;;;4.45;2.85;;;2.60;99.90;;;;;;7388443;19;20320;-81
2022/01/29 07:10:48;;;;;;;4.27;2.77;;;2.60;99.90;;;;;;7389405;19;20305;-79
2022/01/29 07:13:14;;;;;;;4.03;3.00;;;2.60;99.90;;;;;;7388078;19;20329;-79
2022/01/29 07:15:40;;;;;;;3.78;2.83;;;2.60;99.90;;;;;;7387796;19;20313;-79
2022/01/29 07:18:05;;;;;;;4.17;2.73;;;2.60;99.90;;;;;;7388750;19;20304;-79
2022/01/29 07:20:31;;;;;;;4.22;3.05;;;2.60;99.90;;;;;;7384385;19;20835;-79
2022/01/29 07:22:57;;;;;;;4.95;3.08;;;2.70;99.90;;;;;;7389409;19;20313;-79
2022/01/29 07:25:23;;;;;;;5.83;3.33;;;2.60;99.90;;;;;;7389463;19;20304;-80
2022/01/29 07:27:48;;;;;;;3.57;3.03;;;2.70;99.90;;;;;;7392213;19;20371;-79
2022/01/29 07:30:15;;;;;;;10.55;3.80;;;2.70;99.90;;;;;;7394811;19;20844;-81
2022/01/29 07:32:44;;;;;;;5.10;3.50;;;2.90;99.90;;;;;;7395351;19;20312;-81
2022/01/29 07:35:10;;;;;;;4.30;3.05;;;2.70;99.90;;;;;;7393053;19;20319;-80
2022/01/29 07:37:35;;;;;;;4.72;3.15;;;2.70;99.90;;;;;;7396441;19;20296;-80
2022/01/29 07:40:01;;;;;;;5.80;3.17;;;2.70;99.90;;;;;;7396267;19;21193;-79
2022/01/29 07:42:26;;;;;;;5.20;3.43;;;2.70;99.90;;;;;;7395683;19;20300;-83
2022/01/29 07:44:52;;;;;;;4.05;3.20;;;2.70;99.90;;;;;;7395633;19;20320;-78
2022/01/29 07:47:18;;;;;;;5.17;3.30;;;2.70;99.90;;;;;;7393923;19;20305;-79
2022/01/29 07:49:43;;;;;;;5.65;3.40;;;2.90;99.90;;;;;;7396866;19;20340;-79
2022/01/29 07:52:09;;;;;;;4.23;3.43;;;2.80;99.90;;;;;;7395676;19;20634;-84
2022/01/29 07:54:35;;;;;;;6.03;3.40;;;2.80;99.90;;;;;;7395052;19;20309;-79
2022/01/29 07:57:00;;;;;;;6.27;4.03;;;2.90;99.90;;;;;;7399020;19;20304;-80
2022/01/29 07:59:26;;;;;;;5.37;4.40;;;2.80;99.90;;;;;;7396968;19;20355;-79
2022/01/29 08:01:51;;;;;;;4.72;3.50;;;2.80;99.90;;;;;;7395019;19;20721;-80
2022/01/29 08:04:19;;;;;;;5.43;4.10;;;2.90;99.90;;;;;;7404940;19;20305;-86
2022/01/29 08:06:45;;;;;;;6.28;4.65;;;3.00;99.90;;;;;;7413841;19;20344;-80
2022/01/29 08:09:11;;;;;;;6.03;5.28;;;2.90;99.90;;;;;;7406300;19;20324;-80
2022/01/29 08:11:37;;;;;;;5.27;4.10;;;2.90;99.90;;;;;;7402070;19;20297;-80
2022/01/29 08:14:04;;;;;;;8.00;4.25;;;2.90;99.90;;;;;;7394566;19;21182;-79
2022/01/29 08:16:29;;;;;;;7.20;4.30;;;2.90;99.90;;;;;;7399718;19;20332;-81
2022/01/29 08:18:55;;;;;;;4.47;3.80;;;3.00;99.90;;;;;;7398660;19;21086;-81
2022/01/29 08:21:21;;;;;;;5.43;4.28;;;3.00;99.90;;;;;;7397120;19;20321;-79
2022/01/29 08:23:46;;;;;;;5.73;4.07;;;3.00;99.90;;;;;;7395270;19;20316;-81
2022/01/29 08:26:12;;;;;;;4.32;3.92;;;3.00;99.90;;;;;;7397377;19;20384;-78
2022/01/29 08:28:38;;;;;;;5.20;4.00;;;3.00;99.90;;;;;;7396327;19;20317;-82
2022/01/29 08:31:04;;;;;;;5.93;4.25;;;3.00;99.90;;;;;;7396497;19;20301;-79
2022/01/29 08:33:29;;;;;;;4.47;3.88;;;3.10;99.90;;;;;;7396601;19;20304;-85
2022/01/29 08:35:57;;;;;;;3.90;3.60;;;3.10;99.90;;;;;;7397552;19;20331;-80
2022/01/29 08:38:26;;;;;;;5.63;4.10;;;3.10;99.90;;;;;;7394939;19;20340;-80
2022/01/29 08:40:53;;;;;;;9.73;6.53;;;3.10;99.90;;;;;;7394042;19;20297;-79
2022/01/29 08:43:19;;;;;;;6.53;4.35;;;3.10;99.90;;;;;;7393670;19;20308;-81
2022/01/29 08:45:45;;;;;;;9.40;7.32;;;3.20;99.90;;;;;;7389735;19;20394;-81
2022/01/29 08:48:11;;;;;;;6.35;5.03;;;3.30;99.90;;;;;;7397311;19;20388;-82
2022/01/29 08:50:36;;;;;;;4.07;3.67;;;3.20;99.90;;;;;;7395566;19;20309;-80
2022/01/29 08:53:02;;;;;;;6.73;4.90;;;3.20;99.90;;;;;;7394790;19;21063;-83
2022/01/29 08:55:28;;;;;;;4.28;3.78;;;3.20;99.90;;;;;;7393332;19;20875;-81
2022/01/29 08:57:54;;;;;;;3.83;3.50;;;3.20;99.90;;;;;;7395333;19;20308;-85
2022/01/29 09:00:19;;;;;;;4.03;3.63;;;3.20;99.90;;;;;;7393272;19;20362;-80
2022/01/29 09:02:45;;;;;;;3.97;3.67;;;3.30;99.90;;;;;;7391726;19;20910;-81
2022/01/29 09:05:11;;;;;;;4.18;3.78;;;3.30;99.90;;;;;;7390432;19;20285;-80
2022/01/29 09:07:37;;;;;;;5.90;5.13;;;3.30;99.90;;;;;;7390202;19;20341;-80
2022/01/29 09:10:03;;;;;;;5.77;5.00;;;3.40;99.90;;;;;;7392600;19;20341;-80
2022/01/29 09:12:30;;;;;;;7.77;4.87;;;3.30;99.90;;;;;;7389494;19;20325;-81
2022/01/29 09:14:56;;;;;;;5.30;4.45;;;3.30;99.90;;;;;;7391000;19;20331;-80
2022/01/29 09:17:21;;;;;;;4.05;3.65;;;3.30;99.90;;;;;;7392903;19;20443;-82
2022/01/29 09:19:47;;;;;;;4.20;3.80;;;3.30;99.90;;;;;;7392955;19;20341;-82
2022/01/29 09:22:13;;;;;;;4.72;4.22;;;3.30;99.90;;;;;;7393401;19;20336;-83
2022/01/29 09:24:39;;;;;;;4.40;3.80;;;3.30;99.90;;;;;;7391151;19;20391;-80
2022/01/29 09:27:05;;;;;;;5.28;3.78;;;3.40;99.90;;;;;;7388790;19;20305;-81
2022/01/29 09:29:32;;;;;;;4.00;3.45;;;3.40;99.90;;;;;;7389578;19;20345;-80
2022/01/29 09:31:57;;;;;;;3.92;3.38;;;3.40;99.90;;;;;;7388535;19;20331;-82
2022/01/29 09:34:23;;;;;;;3.90;3.57;;;3.40;99.90;;;;;;7392454;19;20359;-80
2022/01/29 09:36:48;;;;;;;3.30;3.10;;;3.50;99.90;;;;;;7394333;19;20300;-79
2022/01/29 09:39:14;;;;;;;3.50;3.20;;;3.50;99.90;;;;;;7387302;19;20335;-80
2022/01/29 09:41:42;;;;;;;3.30;3.00;;;3.50;99.90;;;;;;7403532;19;20336;-81
2022/01/29 09:44:08;;;;;;;4.15;3.30;;;3.50;99.90;;;;;;7398843;19;20313;-79
2022/01/29 09:46:34;;;;;;;3.72;3.25;;;3.60;99.90;;;;;;7396528;19;20356;-81
2022/01/29 09:48:59;;;;;;;3.93;3.20;;;3.60;99.90;;;;;;7390321;19;20332;-81
2022/01/29 09:51:26;;;;;;;3.55;3.25;;;3.60;99.90;;;;;;7390451;19;20354;-77
2022/01/29 09:53:52;;;;;;;3.10;2.90;;;3.60;99.90;;;;;;7385959;19;20361;-79
2022/01/29 09:56:18;;;;;;;4.27;3.23;;;3.60;99.90;;;;;;7387419;19;20312;-80
2022/01/29 09:58:43;;;;;;;3.13;2.83;;;3.70;99.90;;;;;;7399924;19;20325;-82
2022/01/29 10:01:09;;;;;;;3.00;2.80;;;3.70;99.90;;;;;;7395929;19;20315;-83
2022/01/29 10:03:35;;;;;;;3.00;2.75;;;3.70;99.90;;;;;;7387928;19;20304;-80
2022/01/29 10:06:01;;;;;;;3.88;3.15;;;3.70;99.90;;;;;;7387690;19;20332;-79
2022/01/29 10:08:27;;;;;;;4.13;3.20;;;3.80;99.90;;;;;;7384207;19;20407;-80
2022/01/29 10:10:54;;;;;;;3.47;3.17;;;3.80;99.90;;;;;;7387553;19;20831;-80
2022/01/29 10:13:21;;;;;;;3.35;3.05;;;3.80;99.90;;;;;;7390058;19;21021;-82
2022/01/29 10:15:47;;;;;;;2.60;2.40;;;3.80;99.90;;;;;;7387370;19;20339;-80
2022/01/29 10:18:22;;;;;;;3.40;3.00;;;3.90;99.90;;;;;;7388165;19;20320;-80
2022/01/29 10:20:48;;;;;;;2.90;2.67;;;3.90;99.90;;;;;;7390865;19;20340;-80
2022/01/29 10:23:13;;;;;;;3.43;2.87;;;3.90;99.90;;;;;;7389847;19;20347;-77
2022/01/29 10:25:43;;;;;;;2.70;2.50;;;3.90;99.90;;;;;;7389950;19;20387;-78
2022/01/29 10:28:16;;;;;;;3.15;2.90;;;3.90;99.90;;;;;;7391694;19;20297;-78
2022/01/29 10:30:47;;;;;;;3.17;2.88;;;3.90;99.90;;;;;;7370253;19;20408;-78
2022/01/29 10:33:33;;;;;;;3.03;2.28;;;3.90;99.90;;;;;;7387966;19;20341;-79
2022/01/29 10:36:06;;;;;;;3.50;3.13;;;3.90;99.90;;;;;;7385132;19;20317;-80
2022/01/29 10:38:44;;;;;;;2.92;2.72;;;3.90;99.90;;;;;;7384834;19;20328;-81
2022/01/29 10:41:24;;;;;;;2.83;2.58;;;3.90;99.90;;;;;;7383954;19;20344;-80
2022/01/29 10:44:20;;;;;;;2.83;2.63;;;3.90;99.90;;;;;;7383594;19;20380;-80
2022/01/29 10:46:50;;;;;;;2.92;2.63;;;3.90;99.90;;;;;;7280956;19;2005977;-80
2022/01/29 10:49:22;;;;;;;3.23;2.37;;;4.00;99.90;;;;;;7382293;19;20894;-80
2022/01/29 10:52:08;;;;;;;3.25;2.95;;;4.00;99.90;;;;;;7385229;19;20397;-79
2022/01/29 10:54:35;;;;;;;3.97;3.50;;;4.00;99.90;;;;;;7277841;19;2019999;-79
2022/01/29 10:57:03;;;;;;;3.72;3.42;;;4.00;99.90;;;;;;7380983;19;20325;-80
2022/01/29 10:59:33;;;;;;;3.17;2.88;;;4.10;99.90;;;;;;7384426;19;20708;-81
2022/01/29 11:02:04;;;;;;;4.45;3.63;;;4.10;99.90;;;;;;7390276;19;20304;-80
2022/01/29 11:04:30;;;;;;;4.20;3.58;;;4.10;99.90;;;;;;7389081;19;20415;-79
2022/01/29 11:06:59;;;;;;;5.82;4.47;;;4.10;99.90;;;;;;7392067;19;20357;-80
2022/01/29 11:09:26;;;;;;;3.72;3.35;;;4.20;99.90;;;;;;7392405;19;20887;-78
2022/01/29 11:11:51;;;;;;;3.72;3.40;;;4.20;99.90;;;;;;7397847;19;20328;-81
2022/01/29 11:14:18;;;;;;;9.73;5.23;;;4.20;99.90;;;;;;7405793;19;20343;-78
2022/01/29 11:16:44;;;;;;;4.10;3.70;;;4.30;99.90;;;;;;7403085;19;20887;-80
2022/01/29 11:19:10;;;;;;;3.47;3.17;;;4.20;99.90;;;;;;7397564;19;20654;-81
2022/01/29 11:21:36;;;;;;;3.60;3.30;;;4.30;99.90;;;;;;7396359;19;20347;-80
2022/01/29 11:24:01;;;;;;;4.67;4.03;;;4.30;99.90;;;;;;7395882;19;20316;-79
2022/01/29 11:26:29;;;;;;;4.18;3.78;;;4.40;99.90;;;;;;7396048;19;20859;-78
2022/01/29 11:29:30;;;;;;;7.28;5.63;;;4.50;99.90;;;;;;7398183;19;20321;-79
2022/01/29 11:32:17;;;;;;;4.13;3.70;;;4.40;99.90;;;;;;7272267;19;2009235;-79
2022/01/29 11:35:06;;;;;;;4.20;3.85;;;4.40;99.90;;;;;;7370134;19;21115;-78
2022/01/29 11:37:40;;;;;;;4.40;4.00;;;4.50;99.90;;;;;;7288627;19;2004434;-78
2022/01/29 11:40:19;;;;;;;8.25;5.18;;;4.50;99.90;;;;;;7395473;19;20320;-78
2022/01/29 11:43:10;;;;;;;6.90;5.35;;;4.60;99.90;;;;;;7294101;19;2005898;-78
2022/01/29 11:45:45;;;;;;;5.47;4.78;;;4.60;99.90;;;;;;7290482;19;2004445;-80
2022/01/29 11:48:20;;;;;;;4.72;4.25;;;4.70;99.90;;;;;;7393327;19;20401;-79
2022/01/29 11:50:47;;;;;;;5.05;4.65;;;4.70;99.90;;;;;;7393821;19;20380;-81
2022/01/29 11:53:13;;;;;;;5.72;4.40;;;4.70;99.90;;;;;;7394127;19;20318;-78
2022/01/29 11:55:41;;;;;;;4.55;4.13;;;4.80;99.90;;;;;;7375012;19;20332;-78
2022/01/29 11:58:12;;;;;;;5.07;4.57;;;4.80;99.90;;;;;;7395064;19;20376;-79
2022/01/29 12:00:42;;;;;;;5.63;4.20;;;4.80;99.90;;;;;;7398612;19;20339;-78
2022/01/29 12:03:28;;;;;;;3.72;3.42;;;4.90;99.90;;;;;;7394587;19;20312;-78
2022/01/29 12:09:10;;;;;;;6.05;4.47;;;4.90;99.90;;;;;;7292741;19;2005789;-78
2022/01/29 12:11:39;;;;;;;4.40;4.00;;;5.00;99.90;;;;;;7382427;19;20723;-77
2022/01/29 12:14:13;;;;;;;5.93;3.85;;;5.10;99.90;;;;;;7394618;19;20368;-78
2022/01/29 12:16:49;;;;;;;4.25;3.85;;;5.00;99.90;;;;;;7375521;19;20891;-80
2022/01/29 12:19:40;;;;;;;4.32;3.92;;;5.00;99.90;;;;;;7396627;19;20681;-79
2022/01/29 12:22:10;;;;;;;3.93;3.53;;;5.00;99.90;;;;;;7395411;19;20437;-77
2022/01/29 12:24:37;;;;;;;4.10;3.70;;;5.10;99.90;;;;;;7394947;19;20315;-78
2022/01/29 12:27:07;;;;;;;3.90;3.47;;;5.10;99.90;;;;;;7395052;19;20329;-77
2022/01/29 12:29:33;;;;;;;5.53;3.67;;;5.20;99.90;;;;;;7396434;19;20297;-82
2022/01/29 12:31:59;;;;;;;4.63;3.97;;;5.20;99.90;;;;;;7393527;19;20887;-78
2022/01/29 12:34:26;;;;;;;4.38;3.50;;;5.30;99.90;;;;;;7394735;19;20352;-79
2022/01/29 12:37:11;;;;;;;4.63;3.60;;;5.30;99.90;;;;;;7376992;19;20348;-78
2022/01/29 12:39:38;;;;;;;3.65;3.35;;;5.40;99.90;;;;;;7287680;19;2005126;-78
2022/01/29 12:42:13;;;;;;;4.00;3.47;;;5.40;99.90;;;;;;7397447;19;20316;-78
2022/01/29 12:45:01;;;;;;;3.50;3.20;;;5.40;99.90;;;;;;7393350;19;20348;-79
2022/01/29 12:47:34;;;;;;;3.47;3.20;;;5.40;99.90;;;;;;7292728;19;2004643;-79
2022/01/29 12:50:00;;;;;;;3.35;3.15;;;5.50;99.90;;;;;;7385578;19;20680;-78
2022/01/29 12:52:26;;;;;;;3.92;3.33;;;5.50;99.90;;;;;;7393211;19;20329;-78
2022/01/29 12:54:59;;;;;;;3.00;2.70;;;5.60;99.90;;;;;;7395671;19;20851;-79
2022/01/29 12:57:40;;;;;;;3.53;3.22;;;5.60;99.90;;;;;;7396358;19;20683;-79
2022/01/29 13:00:16;;;;;;;3.50;2.92;;;5.60;99.90;;;;;;7284398;19;2004271;-79
2022/01/29 13:02:42;;;;;;;3.30;3.00;;;5.70;99.90;;;;;;7387372;19;20348;-79
2022/01/29 13:05:08;;;;;;;4.93;3.15;;;5.80;99.90;;;;;;7392672;19;20331;-77
2022/01/29 13:07:38;;;;;;;4.77;3.20;;;5.80;99.90;;;;;;7391658;19;20316;-80
2022/01/29 13:10:04;;;;;;;3.40;3.05;;;5.90;99.90;;;;;;7390926;19;20309;-79
2022/01/29 13:12:44;;;;;;;2.67;2.47;;;5.90;99.90;;;;;;7373507;19;20307;-79
2022/01/29 13:15:13;;;;;;;3.25;2.83;;;5.90;99.90;;;;;;7290683;19;2004597;-78